Time;durP1;ratioP1;P1;durP2;ratioP2;P2;SDS_P1;SDS_P2;PMS_P1;PMS_P2;Temp;Humidity;BMP_temperature;BMP_pressure;BME280_temperature;BME280_humidity;BME280_pressure;Samples;Min_cycle;Max_cycle;Signal;HPM_P1;HPM_P2
2021/08/07 00:00:14;;;;;;;;;2.00;1.00;;;;;17.57;65.06;100273.88;5073551;27;45392;-71
2021/08/07 00:02:39;;;;;;;;;3.75;0.00;;;;;17.56;64.66;100271.41;5074112;27;45562;-73
2021/08/07 00:05:05;;;;;;;;;1.00;1.00;;;;;17.53;64.94;100282.50;5078075;27;46332;-73
2021/08/07 00:07:33;;;;;;;;;1.00;1.00;;;;;17.50;65.15;100278.38;5087557;27;45427;-74
2021/08/07 00:09:58;;;;;;;;;3.50;1.75;;;;;17.47;64.96;100275.31;5071512;27;45563;-74
2021/08/07 00:12:24;;;;;;;;;2.00;1.00;;;;;17.45;65.72;100267.50;5073256;27;45411;-72
2021/08/07 00:14:49;;;;;;;;;4.25;1.00;;;;;17.43;65.29;100269.53;5067927;27;45501;-71
2021/08/07 00:17:15;;;;;;;;;1.00;1.00;;;;;17.41;65.46;100269.75;5081150;27;45525;-70
2021/08/07 00:19:40;;;;;;;;;0.50;0.50;;;;;17.42;65.48;100273.25;5073817;27;45525;-74
2021/08/07 00:22:05;;;;;;;;;1.00;1.00;;;;;17.40;65.64;100265.44;5078917;27;45690;-72
2021/08/07 00:24:31;;;;;;;;;0.75;0.75;;;;;17.37;66.02;100265.84;5070665;27;45537;-72
2021/08/07 00:26:57;;;;;;;;;1.75;0.75;;;;;17.37;65.78;100268.53;5078020;27;45694;-69
2021/08/07 00:29:22;;;;;;;;;0.00;0.00;;;;;17.34;65.60;100268.94;5070664;28;45466;-74
2021/08/07 00:31:47;;;;;;;;;1.00;1.00;;;;;17.32;65.83;100265.66;5070287;27;45569;-73
2021/08/07 00:34:13;;;;;;;;;0.00;0.00;;;;;17.30;66.12;100267.69;5087678;27;47022;-69
2021/08/07 00:36:39;;;;;;;;;1.00;1.00;;;;;17.28;65.69;100261.72;5048004;28;45642;-74
2021/08/07 00:39:04;;;;;;;;;3.00;1.00;;;;;17.25;66.23;100262.16;5076458;27;45516;-72
2021/08/07 00:41:30;;;;;;;;;1.00;1.00;;;;;17.22;66.16;100259.88;5074624;27;45427;-74
2021/08/07 00:43:55;;;;;;;;;2.75;1.00;;;;;17.20;66.69;100261.94;5084213;27;45510;-69
2021/08/07 00:46:21;;;;;;;;;0.50;0.00;;;;;17.19;66.36;100253.13;5078965;27;45491;-73
2021/08/07 00:48:46;;;;;;;;;0.75;0.75;;;;;17.16;66.33;100258.03;5071996;27;45443;-73
2021/08/07 00:51:11;;;;;;;;;2.00;0.00;;;;;17.14;66.05;100260.09;5070109;27;45549;-71
2021/08/07 00:53:37;;;;;;;;;1.00;1.00;;;;;17.13;66.79;100261.09;5072606;27;46187;-73
2021/08/07 00:56:03;;;;;;;;;1.00;1.00;;;;;17.09;66.97;100257.22;5073880;27;45368;-74
2021/08/07 00:58:29;;;;;;;;;2.25;1.00;;;;;17.07;66.94;100254.75;5081844;27;45426;-71
2021/08/07 01:00:54;;;;;;;;;0.25;0.25;;;;;17.06;66.89;100252.25;5070550;27;45447;-71
2021/08/07 01:03:34;;;;;;;;;1.00;1.00;;;;;17.05;67.12;100253.28;5057529;27;46842;-71
2021/08/07 01:06:13;;;;;;;;;1.75;0.75;;;;;17.03;66.91;100247.34;5070277;27;45546;-74
2021/08/07 01:08:43;;;;;;;;;2.75;1.00;;;;;16.97;67.12;100244.47;5071883;27;45866;-72
2021/08/07 01:11:18;;;;;;;;;1.75;1.75;;;;;16.94;67.07;100247.53;5067595;27;45519;-72
2021/08/07 01:13:57;;;;;;;;;1.00;1.00;;;;;16.93;67.07;100243.22;5067683;27;45668;-71
2021/08/07 01:16:27;;;;;;;;;0.00;0.00;;;;;16.91;67.23;100241.75;5064721;27;45442;-70
2021/08/07 01:18:53;;;;;;;;;1.25;1.25;;;;;16.87;67.42;100233.34;5068428;28;45689;-72
2021/08/07 01:21:25;;;;;;;;;1.00;1.00;;;;;16.85;67.45;100235.41;5063445;27;45487;-72
2021/08/07 01:23:56;;;;;;;;;2.75;1.00;;;;;16.82;67.61;100235.00;5044859;28;45563;-73
2021/08/07 01:26:24;;;;;;;;;1.00;1.00;;;;;16.81;67.31;100239.47;5068536;27;45681;-69
2021/08/07 01:28:51;;;;;;;;;1.00;1.00;;;;;16.81;67.72;100241.34;5070898;28;45371;-71
2021/08/07 01:31:18;;;;;;;;;2.50;1.00;;;;;16.81;67.66;100236.00;5070262;27;45436;-73
2021/08/07 01:33:45;;;;;;;;;0.50;0.00;;;;;16.79;67.23;100236.22;5066765;27;45485;-67
2021/08/07 01:36:14;;;;;;;;;1.25;1.00;;;;;16.81;67.54;100238.66;5068710;28;45521;-68
2021/08/07 01:38:43;;;;;;;;;0.50;0.50;;;;;16.78;67.58;100234.56;5069246;27;45470;-70
2021/08/07 01:41:18;;;;;;;;;3.75;1.25;;;;;16.77;67.44;100238.22;5067330;27;45638;-71
2021/08/07 01:43:44;;;;;;;;;1.00;1.00;;;;;16.75;67.37;100225.09;5074757;27;46587;-71
2021/08/07 01:46:12;;;;;;;;;0.50;0.25;;;;;16.73;67.89;100223.63;5069666;28;45609;-73
2021/08/07 01:48:45;;;;;;;;;1.00;1.00;;;;;16.70;67.82;100232.06;5069790;27;45427;-73
2021/08/07 01:51:14;;;;;;;;;2.00;1.25;;;;;16.68;67.77;100231.44;5059562;27;45722;-68
2021/08/07 01:53:42;;;;;;;;;1.00;1.00;;;;;16.67;67.88;100229.78;5070450;28;45357;-71
2021/08/07 01:56:29;;;;;;;;;1.00;1.00;;;;;16.63;67.83;100212.53;5065859;27;45565;-72
2021/08/07 01:59:03;;;;;;;;;1.75;1.00;;;;;16.60;67.97;100212.94;5067824;28;45533;-71
2021/08/07 02:01:30;;;;;;;;;1.00;1.00;;;;;16.56;67.99;100221.31;5085313;27;45397;-74
2021/08/07 02:03:58;;;;;;;;;1.00;1.00;;;;;16.54;67.88;100212.72;5068289;27;46597;-73
2021/08/07 02:06:24;;;;;;;;;1.25;0.00;;;;;16.53;68.39;100218.25;5071961;27;45578;-73
2021/08/07 02:08:51;;;;;;;;;5.50;1.00;;;;;16.51;67.97;100222.97;5075305;27;45514;-72
2021/08/07 02:11:17;;;;;;;;;2.00;1.00;;;;;16.49;68.26;100230.34;5068969;27;45783;-73
2021/08/07 02:13:43;;;;;;;;;0.00;0.00;;;;;16.45;68.92;100213.91;5069121;27;46555;-70
2021/08/07 02:16:10;;;;;;;;;1.00;1.00;;;;;16.44;68.56;100214.94;5060324;27;45550;-70
2021/08/07 02:18:40;;;;;;;;;5.00;1.00;;;;;16.41;68.69;100212.66;5077484;27;45504;-73
2021/08/07 02:21:06;;;;;;;;;1.00;1.00;;;;;16.40;68.44;100210.22;5069779;27;45565;-72
2021/08/07 02:23:32;;;;;;;;;2.00;1.00;;;;;16.37;68.88;100210.59;5072054;27;46477;-68
2021/08/07 02:26:01;;;;;;;;;2.00;1.75;;;;;16.35;68.85;100213.47;5067112;27;45703;-71
2021/08/07 02:28:29;;;;;;;;;3.00;1.00;;;;;16.37;69.33;100214.09;5082515;27;45450;-73
2021/08/07 02:30:55;;;;;;;;;1.50;1.50;;;;;16.38;69.23;100202.41;5077070;27;45315;-71
2021/08/07 02:33:23;;;;;;;;;1.00;1.00;;;;;16.41;69.36;100214.53;5071831;27;46107;-76
2021/08/07 02:35:52;;;;;;;;;2.00;1.00;;;;;16.41;69.51;100202.00;5070840;27;45503;-73
2021/08/07 02:38:18;;;;;;;;;1.00;1.00;;;;;16.41;68.97;100193.19;5080028;27;45440;-68
2021/08/07 02:40:45;;;;;;;;;0.75;0.75;;;;;16.41;69.02;100199.34;5071643;27;45521;-71
2021/08/07 02:43:11;;;;;;;;;1.00;1.00;;;;;16.38;68.66;100191.75;5050983;28;48206;-73
2021/08/07 02:45:37;;;;;;;;;0.50;0.00;;;;;16.34;69.33;100191.34;5056360;27;45951;-69
2021/08/07 02:48:03;;;;;;;;;1.50;1.00;;;;;16.32;69.19;100180.03;5074413;27;45427;-71
2021/08/07 02:50:28;;;;;;;;;2.00;1.00;;;;;16.30;69.73;100190.06;5070685;27;45855;-71
2021/08/07 02:52:57;;;;;;;;;2.25;1.00;;;;;16.30;69.64;100187.41;5070908;27;45500;-73
2021/08/07 02:55:23;;;;;;;;;2.00;2.00;;;;;16.29;69.51;100188.41;5058743;28;45816;-73
2021/08/07 02:57:53;;;;;;;;;2.00;2.00;;;;;16.28;69.80;100178.78;5050854;28;45811;-72
2021/08/07 03:00:19;;;;;;;;;1.00;1.00;;;;;16.26;69.79;100178.16;5069756;27;45757;-73
2021/08/07 03:02:44;;;;;;;;;2.00;1.00;;;;;16.25;69.72;100175.72;5073270;27;47015;-70
2021/08/07 03:05:10;;;;;;;;;2.00;1.00;;;;;16.24;70.05;100171.38;5064107;27;45502;-71
2021/08/07 03:07:36;;;;;;;;;3.00;1.25;;;;;16.23;70.82;100177.75;5073040;27;45411;-72
2021/08/07 03:10:05;;;;;;;;;2.00;2.00;;;;;16.21;70.19;100182.44;5078078;27;45658;-73
2021/08/07 03:12:30;;;;;;;;;2.50;2.00;;;;;16.19;70.72;100184.50;5075210;27;46279;-72
2021/08/07 03:14:56;;;;;;;;;1.00;1.00;;;;;16.18;70.51;100183.66;5056200;28;45734;-71
2021/08/07 03:17:21;;;;;;;;;1.00;1.00;;;;;16.17;70.57;100171.38;5073463;27;45445;-74
2021/08/07 03:19:46;;;;;;;;;1.00;1.00;;;;;16.20;70.63;100175.47;5072081;27;45490;-74
2021/08/07 03:22:13;;;;;;;;;2.00;2.00;;;;;16.21;70.34;100169.94;5074453;27;45401;-71
2021/08/07 03:24:38;;;;;;;;;1.00;1.00;;;;;16.20;70.91;100165.63;5071391;27;45550;-74
2021/08/07 03:27:04;;;;;;;;;3.00;1.00;;;;;16.22;70.51;100160.09;5069922;27;45831;-72
2021/08/07 03:29:29;;;;;;;;;1.00;1.00;;;;;16.22;71.01;100157.41;5047818;28;45671;-74
2021/08/07 03:31:54;;;;;;;;;3.00;2.25;;;;;16.24;70.92;100158.03;5065240;27;46342;-74
2021/08/07 03:34:20;;;;;;;;;1.50;0.75;;;;;16.24;70.82;100160.72;5071517;27;45509;-74
2021/08/07 03:36:45;;;;;;;;;2.00;1.00;;;;;16.21;70.67;100159.28;5069475;27;45664;-73
2021/08/07 03:39:11;;;;;;;;;2.00;1.00;;;;;16.21;71.36;100158.47;5075078;27;45476;-73
2021/08/07 03:41:36;;;;;;;;;3.00;2.00;;;;;16.22;71.02;100154.75;5069928;27;45486;-73
2021/08/07 03:44:02;;;;;;;;;2.25;1.00;;;;;16.20;71.65;100156.81;5050712;27;45608;-69
2021/08/07 03:46:27;;;;;;;;;1.50;1.50;;;;;16.15;71.13;100143.25;5071662;27;45400;-71
2021/08/07 03:48:52;;;;;;;;;1.25;1.25;;;;;16.16;71.94;100147.56;5059068;28;45393;-69
2021/08/07 03:51:18;;;;;;;;;1.50;1.00;;;;;16.11;71.79;100148.97;5062673;27;48286;-71
2021/08/07 03:53:43;;;;;;;;;2.00;2.00;;;;;16.11;71.77;100142.84;5075660;27;45430;-71
2021/08/07 03:56:09;;;;;;;;;1.25;1.25;;;;;16.14;72.22;100142.44;5070912;27;45563;-71
2021/08/07 03:58:34;;;;;;;;;2.25;1.50;;;;;16.13;71.87;100141.63;5081087;27;45469;-71
2021/08/07 04:00:59;;;;;;;;;1.50;1.50;;;;;16.09;71.77;100135.03;5065060;27;46090;-74
2021/08/07 04:03:25;;;;;;;;;2.75;1.25;;;;;16.09;72.06;100131.53;5071325;27;45714;-74
2021/08/07 04:05:50;;;;;;;;;2.00;2.00;;;;;16.12;72.24;100125.81;5069932;27;45516;-74
2021/08/07 04:08:15;;;;;;;;;2.25;0.75;;;;;16.11;72.31;100119.66;5074208;27;45461;-75
2021/08/07 04:10:41;;;;;;;;;3.00;2.00;;;;;16.13;71.85;100125.63;5067418;28;46331;-72
2021/08/07 04:13:06;;;;;;;;;2.25;2.00;;;;;16.11;73.07;100126.84;5083599;27;45533;-72
2021/08/07 04:15:32;;;;;;;;;4.75;1.25;;;;;16.07;72.42;100126.44;5076775;27;45426;-74
2021/08/07 04:17:57;;;;;;;;;2.75;2.00;;;;;16.05;72.29;100122.31;5069263;27;45377;-73
2021/08/07 04:20:24;;;;;;;;;1.00;1.00;;;;;16.07;72.38;100122.91;5079442;27;47302;-72
2021/08/07 04:22:50;;;;;;;;;2.00;1.75;;;;;16.07;72.75;100114.91;5082653;27;45530;-73
2021/08/07 04:25:15;;;;;;;;;1.00;1.00;;;;;16.07;72.49;100118.44;5071889;27;45511;-71
2021/08/07 04:27:41;;;;;;;;;3.00;2.00;;;;;16.08;72.62;100120.06;5069485;27;45532;-74
2021/08/07 04:30:09;;;;;;;;;2.00;2.00;;;;;16.08;72.82;100125.41;5067727;27;45497;-71
2021/08/07 04:32:34;;;;;;;;;2.00;2.00;;;;;16.06;72.65;100122.09;5055166;27;45827;-71
2021/08/07 04:35:00;;;;;;;;;2.00;1.00;;;;;16.04;73.17;100123.31;5074424;27;45500;-74
2021/08/07 04:37:25;;;;;;;;;1.75;1.00;;;;;15.99;72.37;100123.91;5068904;27;45546;-74
2021/08/07 04:39:51;;;;;;;;;3.50;1.50;;;;;15.94;72.91;100123.69;5086045;27;45575;-74
2021/08/07 04:42:16;;;;;;;;;2.50;1.50;;;;;15.91;72.98;100116.09;5078532;27;45530;-73
2021/08/07 04:44:42;;;;;;;;;3.00;1.25;;;;;15.93;72.99;100122.06;5069298;27;45539;-74
2021/08/07 04:47:07;;;;;;;;;1.50;0.75;;;;;15.92;73.29;100123.06;5086347;27;45345;-74
2021/08/07 04:49:33;;;;;;;;;3.00;1.00;;;;;15.93;73.33;100114.06;5083375;27;45979;-72
2021/08/07 04:51:59;;;;;;;;;2.00;1.50;;;;;15.90;73.46;100117.97;5070114;27;45429;-73
2021/08/07 04:54:25;;;;;;;;;3.75;2.00;;;;;15.86;73.20;100113.22;5071303;27;45557;-74
2021/08/07 04:56:51;;;;;;;;;3.00;2.50;;;;;15.80;73.77;100100.69;5067612;27;45792;-71
2021/08/07 04:59:16;;;;;;;;;1.75;1.00;;;;;15.80;73.85;100103.34;5084225;27;45501;-74
2021/08/07 05:01:41;;;;;;;;;1.75;1.00;;;;;15.80;73.98;100103.34;5071586;27;45396;-72
2021/08/07 05:04:07;;;;;;;;;1.75;1.75;;;;;15.80;74.43;100103.34;5074630;27;45542;-70
2021/08/07 05:06:32;;;;;;;;;2.00;2.00;;;;;15.80;73.84;100095.34;5070990;27;45616;-74
2021/08/07 05:08:58;;;;;;;;;1.50;1.00;;;;;15.81;73.98;100095.16;5068386;27;46514;-72
2021/08/07 05:11:23;;;;;;;;;2.00;2.00;;;;;15.81;74.04;100099.66;5074990;27;45430;-69
2021/08/07 05:13:49;;;;;;;;;1.00;1.00;;;;;15.82;74.08;100101.31;5082552;27;45534;-72
2021/08/07 05:16:14;;;;;;;;;2.50;2.00;;;;;15.84;74.35;100097.41;5056412;27;45593;-74
2021/08/07 05:18:39;;;;;;;;;2.75;2.00;;;;;15.88;74.19;100105.84;5072232;27;45670;-72
2021/08/07 05:21:05;;;;;;;;;3.00;2.00;;;;;15.88;74.12;100101.34;5069607;27;45393;-72
2021/08/07 05:23:30;;;;;;;;;1.75;1.00;;;;;15.89;74.04;100094.16;5073918;27;45490;-74
2021/08/07 05:25:56;;;;;;;;;4.00;2.00;;;;;15.90;74.24;100087.81;5068410;27;45546;-74
2021/08/07 05:28:21;;;;;;;;;1.50;1.50;;;;;15.93;74.20;100081.28;5071192;27;45548;-74
2021/08/07 05:30:46;;;;;;;;;5.00;2.00;;;;;15.94;75.02;100081.06;5066874;27;45531;-74
2021/08/07 05:33:12;;;;;;;;;3.50;2.00;;;;;15.93;74.11;100087.41;5070787;27;45554;-73
2021/08/07 05:35:37;;;;;;;;;3.25;2.50;;;;;15.93;74.38;100076.75;5069550;27;45465;-71
2021/08/07 05:38:03;;;;;;;;;2.00;1.00;;;;;15.95;74.48;100068.53;5068482;27;45456;-72
2021/08/07 05:40:28;;;;;;;;;3.50;1.50;;;;;15.97;74.13;100063.84;5074814;27;45547;-75
2021/08/07 05:42:53;;;;;;;;;4.00;2.75;;;;;16.02;74.29;100066.72;5065684;27;45473;-74
2021/08/07 05:45:19;;;;;;;;;5.00;2.00;;;;;16.04;74.48;100068.16;5083168;27;45692;-69
2021/08/07 05:47:44;;;;;;;;;3.50;2.00;;;;;16.06;74.49;100071.47;5076885;27;46341;-71
2021/08/07 05:50:11;;;;;;;;;4.00;3.00;;;;;16.09;74.12;100084.38;5067572;27;45484;-74
2021/08/07 05:52:37;;;;;;;;;3.00;2.00;;;;;16.14;73.72;100078.44;5070865;27;45419;-73
2021/08/07 05:55:03;;;;;;;;;2.25;2.25;;;;;16.18;74.06;100074.38;5079489;27;45529;-72
2021/08/07 05:57:29;;;;;;;;;2.25;2.25;;;;;16.18;74.02;100071.69;5070280;27;46586;-74
2021/08/07 05:59:54;;;;;;;;;2.75;2.00;;;;;16.22;73.81;100066.78;5071669;27;45677;-74
2021/08/07 06:02:19;;;;;;;;;2.25;2.00;;;;;16.28;74.27;100073.97;5073286;27;45467;-75
2021/08/07 06:04:45;;;;;;;;;3.50;1.50;;;;;16.31;73.30;100068.22;5083740;27;45428;-74
2021/08/07 06:07:10;;;;;;;;;1.00;0.00;;;;;16.38;73.53;100063.72;5063845;27;47078;-74
2021/08/07 06:09:35;;;;;;;;;1.25;1.00;;;;;16.48;74.06;100068.66;5074416;27;45772;-70
2021/08/07 06:12:01;;;;;;;;;2.00;2.00;;;;;16.58;73.47;100069.09;5053324;28;45452;-74
2021/08/07 06:14:26;;;;;;;;;4.50;2.50;;;;;16.63;73.22;100065.81;5079913;27;45532;-74
2021/08/07 06:16:52;;;;;;;;;2.50;2.25;;;;;16.71;72.99;100074.41;5074395;27;46485;-73
2021/08/07 06:19:17;;;;;;;;;2.25;1.75;;;;;16.75;72.93;100075.66;5078481;27;45528;-74
2021/08/07 06:21:43;;;;;;;;;4.00;2.00;;;;;16.90;72.95;100077.31;5070146;27;45847;-74
2021/08/07 06:24:09;;;;;;;;;1.50;1.00;;;;;17.11;72.19;100077.09;5066964;27;45501;-74
2021/08/07 06:26:35;;;;;;;;;2.25;2.00;;;;;17.35;71.45;100083.59;5070849;27;45668;-70
2021/08/07 06:29:00;;;;;;;;;4.75;1.00;;;;;17.48;71.14;100080.09;5072690;27;45682;-72
2021/08/07 06:31:25;;;;;;;;;2.00;2.00;;;;;17.54;70.59;100078.44;5078624;27;45522;-72
2021/08/07 06:33:51;;;;;;;;;3.00;2.00;;;;;17.55;70.99;100078.19;5072271;27;45671;-74
2021/08/07 06:36:17;;;;;;;;;2.25;2.00;;;;;17.61;70.64;100072.03;5058231;28;46966;-74
2021/08/07 06:38:44;;;;;;;;;2.25;2.25;;;;;17.68;70.57;100071.16;5070360;27;45613;-73
2021/08/07 06:41:09;;;;;;;;;2.00;2.00;;;;;17.75;70.62;100070.09;5081884;27;45561;-73
2021/08/07 06:43:35;;;;;;;;;3.00;1.50;;;;;17.83;69.75;100064.56;5074280;27;46160;-74
2021/08/07 06:46:00;;;;;;;;;2.00;2.00;;;;;17.91;70.15;100058.16;5069719;27;46291;-72
2021/08/07 06:48:25;;;;;;;;;1.00;1.00;;;;;18.03;69.95;100060.97;5060313;27;46379;-72
2021/08/07 06:50:51;;;;;;;;;3.00;2.00;;;;;18.16;69.69;100055.53;5085133;27;45527;-74
2021/08/07 06:53:17;;;;;;;;;1.00;1.00;;;;;18.26;69.07;100053.22;5085092;27;45622;-74
2021/08/07 06:55:42;;;;;;;;;1.50;1.50;;;;;18.35;69.00;100053.78;5083301;27;45563;-73
2021/08/07 06:58:07;;;;;;;;;2.00;2.00;;;;;18.44;68.65;100054.31;5077950;27;45531;-70
2021/08/07 07:00:37;;;;;;;;;1.75;1.75;;;;;18.52;67.76;100043.38;5070811;27;45446;-73
2021/08/07 07:03:03;;;;;;;;;3.00;2.00;;;;;18.64;67.60;100049.66;5069500;27;45477;-74
2021/08/07 07:05:32;;;;;;;;;1.50;1.50;;;;;18.72;67.53;100047.72;5083710;27;46269;-72
2021/08/07 07:07:57;;;;;;;;;5.00;1.00;;;;;18.78;67.86;100047.69;5081227;27;45565;-71
2021/08/07 07:10:23;;;;;;;;;4.00;1.50;;;;;18.93;66.76;100059.94;5073225;27;45518;-71
2021/08/07 07:12:48;;;;;;;;;1.50;1.25;;;;;19.10;66.63;100055.63;5069434;27;45553;-72
2021/08/07 07:15:14;;;;;;;;;1.75;1.00;;;;;19.28;66.31;100052.94;5067671;27;45396;-74
2021/08/07 07:17:39;;;;;;;;;3.50;2.00;;;;;19.53;66.64;100052.06;5069387;27;45461;-72
2021/08/07 07:20:06;;;;;;;;;1.50;0.75;;;;;19.66;65.24;100043.06;5075745;27;45452;-68
2021/08/07 07:22:31;;;;;;;;;3.75;2.00;;;;;19.72;64.90;100044.84;5072963;27;45393;-74
2021/08/07 07:24:57;;;;;;;;;0.25;0.25;;;;;19.79;65.63;100048.28;5085703;27;46276;-71
2021/08/07 07:27:22;;;;;;;;;3.50;2.00;;;;;19.97;64.70;100050.09;5075158;27;45457;-73
2021/08/07 07:29:48;;;;;;;;;0.75;0.75;;;;;20.30;62.59;100055.00;5072376;27;45593;-70
2021/08/07 07:32:13;;;;;;;;;3.25;0.75;;;;;20.43;62.21;100045.09;5077745;27;45568;-73
2021/08/07 07:34:39;;;;;;;;;1.00;1.00;;;;;20.65;62.53;100042.69;5079580;27;45591;-70
2021/08/07 07:37:04;;;;;;;;;3.75;1.00;;;;;20.90;62.46;100043.28;5073282;27;45547;-73
2021/08/07 07:39:30;;;;;;;;;2.00;2.00;;;;;20.93;62.42;100039.31;5082014;27;45484;-69
2021/08/07 07:41:56;;;;;;;;;2.75;2.25;;;;;22.20;59.61;100029.53;5077026;27;45616;-74
2021/08/07 07:44:21;;;;;;;;;1.75;0.00;;;;;24.96;48.48;100019.28;5076184;27;46624;-74
2021/08/07 07:46:46;;;;;;;;;2.25;1.75;;;;;25.87;52.75;100026.19;5077982;27;45540;-72
2021/08/07 07:49:12;;;;;;;;;3.75;1.50;;;;;26.97;46.63;100015.88;5081689;27;45722;-73
2021/08/07 07:51:37;;;;;;;;;2.00;2.00;;;;;27.52;45.68;100005.94;5070833;27;45641;-74
2021/08/07 07:54:03;;;;;;;;;3.00;2.00;;;;;27.11;48.70;100016.09;5067365;27;45594;-72
2021/08/07 07:56:28;;;;;;;;;2.00;1.00;;;;;26.74;48.67;100023.50;5071034;27;45531;-72
2021/08/07 07:58:54;;;;;;;;;1.00;1.00;;;;;26.79;46.06;100025.41;5071329;27;45475;-74
2021/08/07 08:01:19;;;;;;;;;2.00;2.00;;;;;26.37;49.82;100019.19;5069372;28;45479;-74
2021/08/07 08:03:45;;;;;;;;;3.00;2.00;;;;;25.88;49.56;100016.16;5066836;27;46367;-71
2021/08/07 08:06:10;;;;;;;;;2.50;2.50;;;;;25.29;50.90;100009.19;5070103;27;45492;-74
2021/08/07 08:08:36;;;;;;;;;3.00;1.25;;;;;25.64;49.74;100007.69;5077277;27;45500;-73
2021/08/07 08:11:02;;;;;;;;;1.75;1.00;;;;;25.26;46.64;100009.72;5069884;27;45646;-71
2021/08/07 08:13:27;;;;;;;;;3.25;1.25;;;;;26.18;49.27;100008.06;5070639;27;45382;-74
2021/08/07 08:15:53;;;;;;;;;3.25;0.75;;;;;27.26;48.32;100002.50;5073399;27;45572;-74
2021/08/07 08:18:18;;;;;;;;;1.00;1.00;;;;;28.29;45.96;100002.72;5077463;27;45504;-72
2021/08/07 08:20:44;;;;;;;;;2.00;1.00;;;;;27.71;44.63;99999.84;5077269;27;45424;-73
2021/08/07 08:23:09;;;;;;;;;0.25;0.25;;;;;28.05;45.23;100000.72;5070111;28;45463;-71
2021/08/07 08:25:35;;;;;;;;;2.00;2.00;;;;;28.20;45.59;99986.22;5069221;27;45419;-71
2021/08/07 08:28:01;;;;;;;;;3.00;1.00;;;;;30.64;44.71;99980.59;5070719;28;45392;-71
2021/08/07 08:30:27;;;;;;;;;1.75;1.00;;;;;33.12;38.13;99974.56;5070421;27;45543;-75
2021/08/07 08:32:53;;;;;;;;;1.75;1.75;;;;;34.41;36.61;99985.84;5068314;27;46379;-71
2021/08/07 08:35:19;;;;;;;;;2.00;0.75;;;;;34.07;36.97;99975.72;5074753;27;45582;-73
2021/08/07 08:37:44;;;;;;;;;1.00;1.00;;;;;34.37;29.87;99982.97;5078496;27;45484;-72
2021/08/07 08:40:10;;;;;;;;;1.00;1.00;;;;;34.26;31.56;99984.44;5071874;27;45622;-74
2021/08/07 08:42:35;;;;;;;;;3.50;0.25;;;;;32.54;35.83;99970.94;5065256;27;45535;-74
2021/08/07 08:45:02;;;;;;;;;1.00;1.00;;;;;30.95;37.98;99968.31;5072551;27;45562;-72
2021/08/07 08:47:28;;;;;;;;;2.50;0.00;;;;;29.53;39.28;99965.75;5068490;27;45447;-74
2021/08/07 08:49:54;;;;;;;;;1.75;1.00;;;;;28.45;40.62;99968.09;5068424;27;45563;-71
2021/08/07 08:52:24;;;;;;;;;1.00;0.00;;;;;27.27;41.78;99978.91;5073827;27;46348;-72
2021/08/07 08:54:52;;;;;;;;;1.00;0.75;;;;;26.32;43.76;99978.56;5048480;28;45471;-75
2021/08/07 08:57:17;;;;;;;;;2.50;1.00;;;;;25.51;45.81;99971.94;5071417;27;45790;-74
2021/08/07 08:59:43;;;;;;;;;3.00;0.25;;;;;25.09;47.34;99959.34;5061366;27;45507;-74
2021/08/07 09:02:09;;;;;;;;;3.00;1.50;;;;;25.42;47.68;99953.78;5070878;27;45524;-73
2021/08/07 09:04:34;;;;;;;;;4.00;1.00;;;;;25.28;47.93;99958.91;5051529;28;45382;-74
2021/08/07 09:06:59;;;;;;;;;2.50;1.00;;;;;24.87;48.10;99956.78;5070783;27;45385;-74
2021/08/07 09:09:45;;;;;;;;;1.00;1.00;;;;;24.37;48.88;99949.19;5071975;27;45508;-71
2021/08/07 09:12:12;;;;;;;;;2.00;1.00;;;;;23.99;49.55;99942.97;5065694;27;46548;-71
2021/08/07 09:14:40;;;;;;;;;2.00;1.00;;;;;23.50;50.77;99945.69;5067986;27;45547;-69
2021/08/07 09:17:19;;;;;;;;;3.00;1.00;;;;;23.06;51.55;99940.34;5058207;28;45559;-74
2021/08/07 09:19:44;;;;;;;;;1.25;1.25;;;;;22.65;52.97;99947.84;5068012;28;45506;-72
2021/08/07 09:22:22;;;;;;;;;1.50;1.00;;;;;22.36;54.87;99936.41;5071027;28;46649;-74
2021/08/07 09:25:08;;;;;;;;;0.75;0.75;;;;;22.04;55.66;99953.09;5069494;27;45600;-72
2021/08/07 09:27:38;;;;;;;;;2.00;1.00;;;;;21.69;57.40;99954.91;5065831;28;45546;-74
2021/08/07 09:30:17;;;;;;;;;1.00;1.00;;;;;21.49;58.96;99951.84;5047642;28;45583;-73
2021/08/07 09:32:46;;;;;;;;;2.00;1.00;;;;;21.33;59.48;99949.88;5058500;27;46125;-72
2021/08/07 09:35:14;;;;;;;;;3.00;1.75;;;;;21.24;60.64;99941.38;5068205;27;45585;-73
2021/08/07 09:37:40;;;;;;;;;2.00;1.00;;;;;21.20;61.19;99941.03;5059633;27;45444;-74
2021/08/07 09:40:09;;;;;;;;;1.50;1.50;;;;;21.24;61.20;99939.53;5065306;28;45660;-74
2021/08/07 09:42:52;;;;;;;;;3.00;1.00;;;;;21.25;60.53;99943.84;5064767;28;45471;-74
2021/08/07 09:45:23;;;;;;;;;2.00;1.00;;;;;21.25;60.97;99954.56;5054134;28;45536;-70
2021/08/07 09:48:00;;;;;;;;;4.00;1.25;;;;;21.33;61.34;99945.31;5055124;28;45463;-73
2021/08/07 09:50:28;;;;;;;;;2.00;1.00;;;;;21.42;61.59;99949.31;5065440;27;46014;-72
2021/08/07 09:52:55;;;;;;;;;1.50;1.25;;;;;21.55;61.64;99952.75;5067471;27;45739;-74
2021/08/07 09:55:20;;;;;;;;;2.50;1.00;;;;;21.64;60.61;99945.94;5074722;27;45440;-72
2021/08/07 09:57:46;;;;;;;;;1.00;1.00;;;;;21.80;60.49;99950.53;5072969;27;45779;-74
2021/08/07 10:00:12;;;;;;;;;2.00;2.00;;;;;22.29;60.67;99941.94;5065704;27;45498;-71
2021/08/07 10:02:38;;;;;;;;;2.25;1.25;;;;;22.67;59.71;99951.91;5069541;27;46286;-72
2021/08/07 10:05:05;;;;;;;;;2.00;1.00;;;;;22.77;59.59;99948.56;5068973;28;45576;-73
2021/08/07 10:07:31;;;;;;;;;4.00;1.25;;;;;23.01;58.90;99934.91;5069887;27;45472;-74
2021/08/07 10:09:57;;;;;;;;;2.75;1.00;;;;;23.08;57.54;99941.72;5056019;27;45655;-74
2021/08/07 10:12:23;;;;;;;;;1.00;1.00;;;;;22.93;58.31;99949.59;5047275;28;46425;-74
2021/08/07 10:14:49;;;;;;;;;1.00;1.00;;;;;22.69;57.81;99939.03;5053136;28;45556;-71
2021/08/07 10:17:18;;;;;;;;;2.00;1.00;;;;;22.40;57.82;99938.34;5054863;28;45586;-70
2021/08/07 10:19:45;;;;;;;;;1.50;1.00;;;;;22.22;58.43;99930.53;5050336;28;45475;-72
2021/08/07 10:22:13;;;;;;;;;1.00;0.00;;;;;22.06;58.91;99932.94;5057619;28;45611;-72
2021/08/07 10:24:42;;;;;;;;;3.25;1.00;;;;;21.87;59.51;99934.25;5051664;28;45510;-74
2021/08/07 10:27:08;;;;;;;;;2.25;1.00;;;;;21.66;59.60;99931.19;5055119;28;45484;-71
2021/08/07 10:29:37;;;;;;;;;1.00;1.00;;;;;21.45;60.81;99942.63;5029299;28;45625;-74
2021/08/07 10:32:04;;;;;;;;;0.50;0.50;;;;;21.20;61.13;99930.28;5056113;28;47417;-72
2021/08/07 10:34:32;;;;;;;;;1.00;1.00;;;;;21.07;62.01;99930.59;5060035;28;45543;-71
2021/08/07 10:36:58;;;;;;;;;1.25;1.00;;;;;21.08;62.93;99929.50;5055261;28;45425;-74
2021/08/07 10:39:24;;;;;;;;;2.25;2.25;;;;;21.34;63.12;99925.47;5047180;28;45515;-71
2021/08/07 10:41:50;;;;;;;;;1.00;1.00;;;;;21.89;63.55;99910.59;5053307;28;45726;-73
2021/08/07 10:44:16;;;;;;;;;2.00;1.00;;;;;22.57;63.08;99899.81;5059050;28;45574;-69
2021/08/07 10:46:41;;;;;;;;;2.00;1.00;;;;;23.05;60.24;99896.41;5053692;28;45614;-71
2021/08/07 10:49:08;;;;;;;;;1.50;1.50;;;;;23.22;60.39;99896.34;5060736;28;45510;-71
2021/08/07 10:51:36;;;;;;;;;2.75;1.00;;;;;23.38;58.50;99906.22;5062302;28;45556;-70
2021/08/07 10:54:05;;;;;;;;;1.50;1.50;;;;;23.18;58.36;99912.19;5058445;28;45579;-73
2021/08/07 10:56:33;;;;;;;;;2.00;2.00;;;;;23.00;59.01;99915.22;5049567;28;45615;-74
2021/08/07 10:59:20;;;;;;;;;1.00;1.00;;;;;23.11;60.24;99906.19;5052736;28;45537;-72
2021/08/07 11:01:48;;;;;;;;;1.25;0.00;;;;;23.73;60.20;99901.44;5061617;28;45601;-71
2021/08/07 11:04:20;;;;;;;;;2.00;1.00;;;;;24.05;57.31;99896.03;5036774;28;45624;-71
2021/08/07 11:06:49;;;;;;;;;2.00;2.00;;;;;24.08;57.49;99894.72;5051025;28;45488;-72
2021/08/07 11:09:14;;;;;;;;;1.00;1.00;;;;;23.91;57.57;99886.75;5057405;27;45667;-71
2021/08/07 11:11:40;;;;;;;;;2.00;1.00;;;;;23.53;56.53;99902.84;5076086;27;45455;-73
2021/08/07 11:14:21;;;;;;;;;1.75;0.75;;;;;23.13;57.44;99903.25;5070394;27;45793;-69
2021/08/07 11:17:12;;;;;;;;;0.00;0.00;;;;;22.75;58.17;99886.88;5055367;27;45717;-74
2021/08/07 11:19:48;;;;;;;;;1.50;1.50;;;;;22.46;59.15;99883.53;4995456;28;45550;-71
2021/08/07 11:22:44;;;;;;;;;3.00;1.00;;;;;22.30;59.39;99889.72;4993873;28;47252;-72
2021/08/07 11:25:17;;;;;;;;;2.50;1.00;;;;;22.33;60.39;99889.25;4993628;28;45558;-71